sensor_id;sensor_type;location;lat;lon;timestamp;temperature;humidity
69335;SHT31;56477;52.742;15.242;2023-01-28T00:02:21;-3.11;98.02
69335;SHT31;56477;52.742;15.242;2023-01-28T00:04:47;-3.11;98.08
69335;SHT31;56477;52.742;15.242;2023-01-28T00:07:14;-3.09;98.17
69335;SHT31;56477;52.742;15.242;2023-01-28T00:09:40;-3.09;98.08
69335;SHT31;56477;52.742;15.242;2023-01-28T00:12:07;-3.06;98.19
69335;SHT31;56477;52.742;15.242;2023-01-28T00:14:32;-3.03;98.13
69335;SHT31;56477;52.742;15.242;2023-01-28T00:16:59;-3.04;98.07
69335;SHT31;56477;52.742;15.242;2023-01-28T00:19:24;-3.04;98.06
69335;SHT31;56477;52.742;15.242;2023-01-28T00:21:51;-2.99;98.06
69335;SHT31;56477;52.742;15.242;2023-01-28T00:24:16;-2.96;98.05
69335;SHT31;56477;52.742;15.242;2023-01-28T00:26:43;-2.93;98.12
69335;SHT31;56477;52.742;15.242;2023-01-28T00:29:08;-2.83;98.08
69335;SHT31;56477;52.742;15.242;2023-01-28T00:31:35;-2.80;97.92
69335;SHT31;56477;52.742;15.242;2023-01-28T00:34:02;-2.79;97.90
69335;SHT31;56477;52.742;15.242;2023-01-28T00:36:28;-2.75;97.92
69335;SHT31;56477;52.742;15.242;2023-01-28T00:38:56;-2.72;97.95
69335;SHT31;56477;52.742;15.242;2023-01-28T00:41:25;-2.68;97.90
69335;SHT31;56477;52.742;15.242;2023-01-28T00:43:51;-2.65;97.79
69335;SHT31;56477;52.742;15.242;2023-01-28T00:46:18;-2.64;97.78
69335;SHT31;56477;52.742;15.242;2023-01-28T00:48:44;-2.59;97.79
69335;SHT31;56477;52.742;15.242;2023-01-28T00:51:12;-2.55;97.81
69335;SHT31;56477;52.742;15.242;2023-01-28T00:53:38;-2.54;97.78
69335;SHT31;56477;52.742;15.242;2023-01-28T00:56:06;-2.48;97.93
69335;SHT31;56477;52.742;15.242;2023-01-28T00:58:32;-2.41;97.73
69335;SHT31;56477;52.742;15.242;2023-01-28T01:01:26;-2.38;97.50
69335;SHT31;56477;52.742;15.242;2023-01-28T01:03:53;-2.27;97.34
69335;SHT31;56477;52.742;15.242;2023-01-28T01:06:33;-2.24;97.15
69335;SHT31;56477;52.742;15.242;2023-01-28T01:09:01;-2.20;97.01
69335;SHT31;56477;52.742;15.242;2023-01-28T01:11:27;-2.14;96.93
69335;SHT31;56477;52.742;15.242;2023-01-28T01:13:54;-2.06;96.49
69335;SHT31;56477;52.742;15.242;2023-01-28T01:16:23;-2.04;96.11
69335;SHT31;56477;52.742;15.242;2023-01-28T01:18:51;-2.03;96.28
69335;SHT31;56477;52.742;15.242;2023-01-28T01:21:20;-1.97;96.00
69335;SHT31;56477;52.742;15.242;2023-01-28T01:23:47;-1.90;95.90
69335;SHT31;56477;52.742;15.242;2023-01-28T01:26:14;-1.83;94.48
69335;SHT31;56477;52.742;15.242;2023-01-28T01:28:40;-1.73;93.59
69335;SHT31;56477;52.742;15.242;2023-01-28T01:31:12;-1.65;93.42
69335;SHT31;56477;52.742;15.242;2023-01-28T01:33:43;-1.58;93.84
69335;SHT31;56477;52.742;15.242;2023-01-28T01:36:11;-1.63;93.86
69335;SHT31;56477;52.742;15.242;2023-01-28T01:38:37;-1.63;93.25
69335;SHT31;56477;52.742;15.242;2023-01-28T01:41:05;-1.56;92.06
69335;SHT31;56477;52.742;15.242;2023-01-28T01:43:51;-1.51;92.01
69335;SHT31;56477;52.742;15.242;2023-01-28T01:46:41;-1.42;92.25
69335;SHT31;56477;52.742;15.242;2023-01-28T01:51:41;-1.35;90.41
69335;SHT31;56477;52.742;15.242;2023-01-28T01:54:08;-1.28;89.79
69335;SHT31;56477;52.742;15.242;2023-01-28T01:56:37;-1.27;90.20
69335;SHT31;56477;52.742;15.242;2023-01-28T01:59:07;-1.21;89.83
69335;SHT31;56477;52.742;15.242;2023-01-28T02:01:34;-1.21;90.00
69335;SHT31;56477;52.742;15.242;2023-01-28T02:04:04;-1.20;89.73
69335;SHT31;56477;52.742;15.242;2023-01-28T02:06:32;-1.18;90.26
69335;SHT31;56477;52.742;15.242;2023-01-28T02:08:59;-1.18;90.32
69335;SHT31;56477;52.742;15.242;2023-01-28T02:11:29;-1.17;90.50
69335;SHT31;56477;52.742;15.242;2023-01-28T02:13:58;-1.14;90.69
69335;SHT31;56477;52.742;15.242;2023-01-28T02:16:26;-1.15;90.02
69335;SHT31;56477;52.742;15.242;2023-01-28T02:18:53;-1.12;89.76
69335;SHT31;56477;52.742;15.242;2023-01-28T02:21:39;-1.12;89.33
69335;SHT31;56477;52.742;15.242;2023-01-28T02:32:52;-1.11;90.92
69335;SHT31;56477;52.742;15.242;2023-01-28T02:35:06;-1.10;90.65
69335;SHT31;56477;52.742;15.242;2023-01-28T02:37:46;-1.05;90.33
69335;SHT31;56477;52.742;15.242;2023-01-28T02:40:26;-1.08;90.27
69335;SHT31;56477;52.742;15.242;2023-01-28T02:42:55;-1.10;90.21
69335;SHT31;56477;52.742;15.242;2023-01-28T02:45:34;-1.08;91.14
69335;SHT31;56477;52.742;15.242;2023-01-28T02:48:39;-1.08;90.41
69335;SHT31;56477;52.742;15.242;2023-01-28T02:51:16;-1.12;90.37
69335;SHT31;56477;52.742;15.242;2023-01-28T02:54:02;-1.14;90.91
69335;SHT31;56477;52.742;15.242;2023-01-28T02:56:47;-1.10;90.93
69335;SHT31;56477;52.742;15.242;2023-01-28T03:02:43;-1.12;91.64
69335;SHT31;56477;52.742;15.242;2023-01-28T03:05:19;-1.10;92.10
69335;SHT31;56477;52.742;15.242;2023-01-28T03:07:48;-1.10;91.97
69335;SHT31;56477;52.742;15.242;2023-01-28T03:10:18;-1.18;91.76
69335;SHT31;56477;52.742;15.242;2023-01-28T03:12:48;-1.14;92.15
69335;SHT31;56477;52.742;15.242;2023-01-28T03:15:46;-1.14;92.69
69335;SHT31;56477;52.742;15.242;2023-01-28T03:18:44;-1.14;92.75
69335;SHT31;56477;52.742;15.242;2023-01-28T03:21:35;-1.14;93.38
69335;SHT31;56477;52.742;15.242;2023-01-28T03:24:31;-1.20;93.08
69335;SHT31;56477;52.742;15.242;2023-01-28T03:27:27;-1.20;92.11
69335;SHT31;56477;52.742;15.242;2023-01-28T03:30:27;-1.14;92.48
69335;SHT31;56477;52.742;15.242;2023-01-28T03:33:14;-1.15;92.73
69335;SHT31;56477;52.742;15.242;2023-01-28T03:35:59;-1.17;92.40
69335;SHT31;56477;52.742;15.242;2023-01-28T03:38:45;-1.17;92.40
69335;SHT31;56477;52.742;15.242;2023-01-28T03:41:20;-1.17;92.02
69335;SHT31;56477;52.742;15.242;2023-01-28T03:43:47;-1.18;92.43
69335;SHT31;56477;52.742;15.242;2023-01-28T03:46:13;-1.14;92.92
69335;SHT31;56477;52.742;15.242;2023-01-28T03:48:40;-1.14;93.22
69335;SHT31;56477;52.742;15.242;2023-01-28T03:51:06;-1.14;93.58
69335;SHT31;56477;52.742;15.242;2023-01-28T03:53:32;-1.10;93.00
69335;SHT31;56477;52.742;15.242;2023-01-28T03:55:58;-1.12;92.68
69335;SHT31;56477;52.742;15.242;2023-01-28T03:58:25;-1.12;92.94
69335;SHT31;56477;52.742;15.242;2023-01-28T04:00:52;-1.05;92.95
69335;SHT31;56477;52.742;15.242;2023-01-28T04:03:20;-1.05;92.91
69335;SHT31;56477;52.742;15.242;2023-01-28T04:06:00;-1.03;92.18
69335;SHT31;56477;52.742;15.242;2023-01-28T04:08:27;-0.97;91.87
69335;SHT31;56477;52.742;15.242;2023-01-28T04:10:55;-0.99;91.96
69335;SHT31;56477;52.742;15.242;2023-01-28T04:13:22;-0.94;91.99
69335;SHT31;56477;52.742;15.242;2023-01-28T04:15:48;-0.91;91.60
69335;SHT31;56477;52.742;15.242;2023-01-28T04:18:14;-0.90;91.25
69335;SHT31;56477;52.742;15.242;2023-01-28T04:20:40;-0.86;91.22
69335;SHT31;56477;52.742;15.242;2023-01-28T04:23:06;-0.84;90.91
69335;SHT31;56477;52.742;15.242;2023-01-28T04:25:33;-0.84;90.55
69335;SHT31;56477;52.742;15.242;2023-01-28T04:27:59;-0.86;90.35
69335;SHT31;56477;52.742;15.242;2023-01-28T04:30:25;-0.86;91.28
69335;SHT31;56477;52.742;15.242;2023-01-28T04:32:51;-0.87;91.19
69335;SHT31;56477;52.742;15.242;2023-01-28T04:35:18;-0.84;91.04
69335;SHT31;56477;52.742;15.242;2023-01-28T04:37:44;-0.83;91.08
69335;SHT31;56477;52.742;15.242;2023-01-28T04:40:11;-0.83;90.42
69335;SHT31;56477;52.742;15.242;2023-01-28T04:42:38;-0.80;90.91
69335;SHT31;56477;52.742;15.242;2023-01-28T04:45:04;-0.82;90.87
69335;SHT31;56477;52.742;15.242;2023-01-28T04:47:31;-0.83;90.61
69335;SHT31;56477;52.742;15.242;2023-01-28T04:49:56;-0.83;90.54
69335;SHT31;56477;52.742;15.242;2023-01-28T04:52:23;-0.79;89.00
69335;SHT31;56477;52.742;15.242;2023-01-28T04:54:48;-0.74;88.66
69335;SHT31;56477;52.742;15.242;2023-01-28T04:57:15;-0.70;88.70
69335;SHT31;56477;52.742;15.242;2023-01-28T04:59:41;-0.70;88.55
69335;SHT31;56477;52.742;15.242;2023-01-28T05:02:08;-0.66;88.81
69335;SHT31;56477;52.742;15.242;2023-01-28T05:04:33;-0.62;88.51
69335;SHT31;56477;52.742;15.242;2023-01-28T05:06:59;-0.59;88.21
69335;SHT31;56477;52.742;15.242;2023-01-28T05:09:25;-0.58;87.90
69335;SHT31;56477;52.742;15.242;2023-01-28T05:11:51;-0.58;87.85
69335;SHT31;56477;52.742;15.242;2023-01-28T05:14:17;-0.56;86.73
69335;SHT31;56477;52.742;15.242;2023-01-28T05:16:43;-0.53;86.74
69335;SHT31;56477;52.742;15.242;2023-01-28T05:19:09;-0.53;86.96
69335;SHT31;56477;52.742;15.242;2023-01-28T05:21:35;-0.52;86.71
69335;SHT31;56477;52.742;15.242;2023-01-28T05:24:01;-0.51;87.00
69335;SHT31;56477;52.742;15.242;2023-01-28T05:26:27;-0.51;86.74
69335;SHT31;56477;52.742;15.242;2023-01-28T05:28:53;-0.51;87.61
69335;SHT31;56477;52.742;15.242;2023-01-28T05:31:19;-0.52;86.79
69335;SHT31;56477;52.742;15.242;2023-01-28T05:33:45;-0.51;86.20
69335;SHT31;56477;52.742;15.242;2023-01-28T05:36:11;-0.49;86.41
69335;SHT31;56477;52.742;15.242;2023-01-28T05:38:37;-0.46;86.32
69335;SHT31;56477;52.742;15.242;2023-01-28T05:41:04;-0.48;86.79
69335;SHT31;56477;52.742;15.242;2023-01-28T05:43:29;-0.46;87.09
69335;SHT31;56477;52.742;15.242;2023-01-28T05:45:55;-0.46;87.41
69335;SHT31;56477;52.742;15.242;2023-01-28T05:48:21;-0.48;85.58
69335;SHT31;56477;52.742;15.242;2023-01-28T05:50:47;-0.51;86.18
69335;SHT31;56477;52.742;15.242;2023-01-28T05:53:13;-0.46;86.55
69335;SHT31;56477;52.742;15.242;2023-01-28T05:55:40;-0.45;86.95
69335;SHT31;56477;52.742;15.242;2023-01-28T05:58:05;-0.45;86.85
69335;SHT31;56477;52.742;15.242;2023-01-28T06:00:32;-0.45;86.67
69335;SHT31;56477;52.742;15.242;2023-01-28T06:02:57;-0.39;86.73
69335;SHT31;56477;52.742;15.242;2023-01-28T06:05:24;-0.42;85.92
69335;SHT31;56477;52.742;15.242;2023-01-28T06:07:49;-0.42;86.24
69335;SHT31;56477;52.742;15.242;2023-01-28T06:10:16;-0.41;86.85
69335;SHT31;56477;52.742;15.242;2023-01-28T06:12:43;-0.42;86.30
69335;SHT31;56477;52.742;15.242;2023-01-28T06:15:09;-0.41;85.28
69335;SHT31;56477;52.742;15.242;2023-01-28T06:17:36;-0.42;85.57
69335;SHT31;56477;52.742;15.242;2023-01-28T06:20:02;-0.39;85.55
69335;SHT31;56477;52.742;15.242;2023-01-28T06:22:28;-0.33;85.72
69335;SHT31;56477;52.742;15.242;2023-01-28T06:24:54;-0.35;86.45
69335;SHT31;56477;52.742;15.242;2023-01-28T06:27:20;-0.31;86.01
69335;SHT31;56477;52.742;15.242;2023-01-28T06:29:46;-0.35;85.89
69335;SHT31;56477;52.742;15.242;2023-01-28T06:32:12;-0.33;85.60
69335;SHT31;56477;52.742;15.242;2023-01-28T06:34:38;-0.32;86.85
69335;SHT31;56477;52.742;15.242;2023-01-28T06:37:04;-0.32;87.29
69335;SHT31;56477;52.742;15.242;2023-01-28T06:39:31;-0.33;87.00
69335;SHT31;56477;52.742;15.242;2023-01-28T06:41:58;-0.38;86.92
69335;SHT31;56477;52.742;15.242;2023-01-28T06:44:24;-0.35;86.48
69335;SHT31;56477;52.742;15.242;2023-01-28T06:46:50;-0.33;86.48
69335;SHT31;56477;52.742;15.242;2023-01-28T06:49:16;-0.35;86.37
69335;SHT31;56477;52.742;15.242;2023-01-28T06:51:42;-0.33;86.57
69335;SHT31;56477;52.742;15.242;2023-01-28T06:54:08;-0.31;86.05
69335;SHT31;56477;52.742;15.242;2023-01-28T06:56:34;-0.32;85.72
69335;SHT31;56477;52.742;15.242;2023-01-28T06:59:00;-0.29;84.44
69335;SHT31;56477;52.742;15.242;2023-01-28T07:01:26;-0.26;84.65
69335;SHT31;56477;52.742;15.242;2023-01-28T07:03:52;-0.21;85.13
69335;SHT31;56477;52.742;15.242;2023-01-28T07:06:18;-0.18;85.98
69335;SHT31;56477;52.742;15.242;2023-01-28T07:08:44;-0.19;86.22
69335;SHT31;56477;52.742;15.242;2023-01-28T07:11:10;-0.21;85.83
69335;SHT31;56477;52.742;15.242;2023-01-28T07:13:36;-0.21;85.32
69335;SHT31;56477;52.742;15.242;2023-01-28T07:16:02;-0.18;85.27
69335;SHT31;56477;52.742;15.242;2023-01-28T07:18:29;-0.17;85.08
69335;SHT31;56477;52.742;15.242;2023-01-28T07:20:55;-0.15;85.02
69335;SHT31;56477;52.742;15.242;2023-01-28T07:23:21;-0.11;84.73
69335;SHT31;56477;52.742;15.242;2023-01-28T07:25:47;-0.12;83.65
69335;SHT31;56477;52.742;15.242;2023-01-28T07:28:14;-0.10;83.56
69335;SHT31;56477;52.742;15.242;2023-01-28T07:30:49;-0.05;82.72
69335;SHT31;56477;52.742;15.242;2023-01-28T07:33:16;-0.04;83.06
69335;SHT31;56477;52.742;15.242;2023-01-28T07:35:42;-0.01;82.77
69335;SHT31;56477;52.742;15.242;2023-01-28T07:38:09;-0.01;83.17
69335;SHT31;56477;52.742;15.242;2023-01-28T07:40:34;-0.01;83.26
69335;SHT31;56477;52.742;15.242;2023-01-28T07:43:00;-0.01;84.20
69335;SHT31;56477;52.742;15.242;2023-01-28T07:45:26;0.00;84.59
69335;SHT31;56477;52.742;15.242;2023-01-28T07:47:56;0.03;84.26
69335;SHT31;56477;52.742;15.242;2023-01-28T07:50:23;0.05;83.60
69335;SHT31;56477;52.742;15.242;2023-01-28T07:52:50;0.03;82.20
69335;SHT31;56477;52.742;15.242;2023-01-28T07:55:16;0.11;81.65
69335;SHT31;56477;52.742;15.242;2023-01-28T07:57:55;0.14;81.49
69335;SHT31;56477;52.742;15.242;2023-01-28T08:00:22;0.20;81.80
69335;SHT31;56477;52.742;15.242;2023-01-28T08:02:49;0.21;83.00
69335;SHT31;56477;52.742;15.242;2023-01-28T08:05:16;0.18;83.39
69335;SHT31;56477;52.742;15.242;2023-01-28T08:07:43;0.17;83.27
69335;SHT31;56477;52.742;15.242;2023-01-28T08:10:11;0.21;83.43
69335;SHT31;56477;52.742;15.242;2023-01-28T08:12:38;0.21;82.94
69335;SHT31;56477;52.742;15.242;2023-01-28T08:15:05;0.24;82.13
69335;SHT31;56477;52.742;15.242;2023-01-28T08:17:31;0.27;82.92
69335;SHT31;56477;52.742;15.242;2023-01-28T08:19:57;0.30;82.24
69335;SHT31;56477;52.742;15.242;2023-01-28T08:22:26;0.33;82.15
69335;SHT31;56477;52.742;15.242;2023-01-28T08:24:52;0.34;81.53
69335;SHT31;56477;52.742;15.242;2023-01-28T08:27:18;0.37;80.72
69335;SHT31;56477;52.742;15.242;2023-01-28T08:29:44;0.41;80.99
69335;SHT31;56477;52.742;15.242;2023-01-28T08:32:10;0.46;81.37
69335;SHT31;56477;52.742;15.242;2023-01-28T08:34:36;0.50;80.99
69335;SHT31;56477;52.742;15.242;2023-01-28T08:37:03;0.54;81.15
69335;SHT31;56477;52.742;15.242;2023-01-28T08:39:30;0.61;80.93
69335;SHT31;56477;52.742;15.242;2023-01-28T08:41:56;0.62;80.26
69335;SHT31;56477;52.742;15.242;2023-01-28T08:44:22;0.55;81.03
69335;SHT31;56477;52.742;15.242;2023-01-28T08:46:48;0.61;82.06
69335;SHT31;56477;52.742;15.242;2023-01-28T08:49:14;0.53;79.57
69335;SHT31;56477;52.742;15.242;2023-01-28T08:51:40;0.61;80.61
69335;SHT31;56477;52.742;15.242;2023-01-28T08:54:06;0.68;80.30
69335;SHT31;56477;52.742;15.242;2023-01-28T08:56:32;0.72;80.93
69335;SHT31;56477;52.742;15.242;2023-01-28T08:58:58;0.69;79.33
69335;SHT31;56477;52.742;15.242;2023-01-28T09:01:24;0.67;79.14
69335;SHT31;56477;52.742;15.242;2023-01-28T09:03:51;0.68;80.04
69335;SHT31;56477;52.742;15.242;2023-01-28T09:06:18;0.71;78.88
69335;SHT31;56477;52.742;15.242;2023-01-28T09:08:44;0.69;77.88
69335;SHT31;56477;52.742;15.242;2023-01-28T09:11:10;0.75;78.92
69335;SHT31;56477;52.742;15.242;2023-01-28T09:13:36;0.84;79.53
69335;SHT31;56477;52.742;15.242;2023-01-28T09:16:06;0.81;77.22
69335;SHT31;56477;52.742;15.242;2023-01-28T09:18:32;0.81;77.71
69335;SHT31;56477;52.742;15.242;2023-01-28T09:20:58;0.85;78.31
69335;SHT31;56477;52.742;15.242;2023-01-28T09:23:24;0.86;79.22
69335;SHT31;56477;52.742;15.242;2023-01-28T09:25:58;0.92;78.58
69335;SHT31;56477;52.742;15.242;2023-01-28T09:28:24;0.93;78.24
69335;SHT31;56477;52.742;15.242;2023-01-28T09:30:50;0.89;79.25
69335;SHT31;56477;52.742;15.242;2023-01-28T09:33:16;0.95;78.91
69335;SHT31;56477;52.742;15.242;2023-01-28T09:35:43;0.95;77.96
69335;SHT31;56477;52.742;15.242;2023-01-28T09:38:09;0.92;78.49
69335;SHT31;56477;52.742;15.242;2023-01-28T09:40:38;0.92;78.35
69335;SHT31;56477;52.742;15.242;2023-01-28T09:45:47;0.93;76.13
69335;SHT31;56477;52.742;15.242;2023-01-28T09:48:18;0.97;78.63
69335;SHT31;56477;52.742;15.242;2023-01-28T09:50:52;0.95;78.87
69335;SHT31;56477;52.742;15.242;2023-01-28T09:53:22;0.97;78.05
69335;SHT31;56477;52.742;15.242;2023-01-28T09:56:03;0.89;78.03
69335;SHT31;56477;52.742;15.242;2023-01-28T09:58:30;0.85;78.36
69335;SHT31;56477;52.742;15.242;2023-01-28T10:01:02;0.86;78.12
69335;SHT31;56477;52.742;15.242;2023-01-28T10:14:57;1.03;78.63
69335;SHT31;56477;52.742;15.242;2023-01-28T10:17:31;1.10;78.63
69335;SHT31;56477;52.742;15.242;2023-01-28T10:20:04;1.02;78.14
69335;SHT31;56477;52.742;15.242;2023-01-28T10:22:38;1.02;78.07
69335;SHT31;56477;52.742;15.242;2023-01-28T10:25:13;1.03;78.18
69335;SHT31;56477;52.742;15.242;2023-01-28T10:27:43;1.10;78.81
69335;SHT31;56477;52.742;15.242;2023-01-28T10:32:51;1.20;78.11
69335;SHT31;56477;52.742;15.242;2023-01-28T10:35:19;1.23;78.13
69335;SHT31;56477;52.742;15.242;2023-01-28T10:37:45;1.16;78.18
69335;SHT31;56477;52.742;15.242;2023-01-28T10:40:14;1.19;77.99
69335;SHT31;56477;52.742;15.242;2023-01-28T10:42:40;1.19;78.30
69335;SHT31;56477;52.742;15.242;2023-01-28T10:48:22;1.07;78.80
69335;SHT31;56477;52.742;15.242;2023-01-28T10:50:56;1.03;79.06
69335;SHT31;56477;52.742;15.242;2023-01-28T10:53:37;0.96;78.93
69335;SHT31;56477;52.742;15.242;2023-01-28T10:56:09;1.02;79.17
69335;SHT31;56477;52.742;15.242;2023-01-28T10:58:56;1.06;78.69
69335;SHT31;56477;52.742;15.242;2023-01-28T11:01:23;1.10;78.72
69335;SHT31;56477;52.742;15.242;2023-01-28T11:03:54;1.16;79.06
69335;SHT31;56477;52.742;15.242;2023-01-28T11:06:25;1.20;78.73
69335;SHT31;56477;52.742;15.242;2023-01-28T11:08:52;1.19;78.68
69335;SHT31;56477;52.742;15.242;2023-01-28T11:11:25;1.17;78.07
69335;SHT31;56477;52.742;15.242;2023-01-28T11:13:53;1.17;78.92
69335;SHT31;56477;52.742;15.242;2023-01-28T11:16:23;1.12;79.15
69335;SHT31;56477;52.742;15.242;2023-01-28T11:18:57;1.09;79.04
69335;SHT31;56477;52.742;15.242;2023-01-28T11:21:26;1.15;79.41
69335;SHT31;56477;52.742;15.242;2023-01-28T11:23:58;1.13;79.36
69335;SHT31;56477;52.742;15.242;2023-01-28T11:26:28;1.20;79.61
69335;SHT31;56477;52.742;15.242;2023-01-28T11:28:56;1.13;78.97
69335;SHT31;56477;52.742;15.242;2023-01-28T11:31:22;1.15;79.55
69335;SHT31;56477;52.742;15.242;2023-01-28T11:33:59;1.19;79.86
69335;SHT31;56477;52.742;15.242;2023-01-28T11:36:28;1.30;80.04
69335;SHT31;56477;52.742;15.242;2023-01-28T11:38:58;1.32;80.45
69335;SHT31;56477;52.742;15.242;2023-01-28T11:41:30;1.32;79.94
69335;SHT31;56477;52.742;15.242;2023-01-28T11:43:58;1.40;79.89
69335;SHT31;56477;52.742;15.242;2023-01-28T11:46:52;1.32;79.10
69335;SHT31;56477;52.742;15.242;2023-01-28T11:49:31;1.40;79.27
69335;SHT31;56477;52.742;15.242;2023-01-28T11:52:13;1.47;79.58
69335;SHT31;56477;52.742;15.242;2023-01-28T11:57:37;1.32;78.88
69335;SHT31;56477;52.742;15.242;2023-01-28T12:33:34;1.44;78.93
69335;SHT31;56477;52.742;15.242;2023-01-28T12:41:33;1.60;78.26
69335;SHT31;56477;52.742;15.242;2023-01-28T12:44:07;1.60;77.67
69335;SHT31;56477;52.742;15.242;2023-01-28T12:51:51;1.46;76.43
69335;SHT31;56477;52.742;15.242;2023-01-28T12:54:34;1.34;76.69
69335;SHT31;56477;52.742;15.242;2023-01-28T12:57:02;1.34;77.24
69335;SHT31;56477;52.742;15.242;2023-01-28T12:59:38;1.36;78.73
69335;SHT31;56477;52.742;15.242;2023-01-28T13:07:47;1.17;79.05
69335;SHT31;56477;52.742;15.242;2023-01-28T13:12:54;1.19;79.77
69335;SHT31;56477;52.742;15.242;2023-01-28T13:15:22;1.20;80.07
69335;SHT31;56477;52.742;15.242;2023-01-28T13:18:01;1.20;80.05
69335;SHT31;56477;52.742;15.242;2023-01-28T13:20:38;1.19;80.37
69335;SHT31;56477;52.742;15.242;2023-01-28T13:23:23;1.22;80.25
69335;SHT31;56477;52.742;15.242;2023-01-28T13:25:54;1.22;80.73
69335;SHT31;56477;52.742;15.242;2023-01-28T13:28:38;1.07;80.47
69335;SHT31;56477;52.742;15.242;2023-01-28T13:31:09;1.06;81.10
69335;SHT31;56477;52.742;15.242;2023-01-28T13:33:40;1.07;81.01
69335;SHT31;56477;52.742;15.242;2023-01-28T13:46:52;1.13;81.57
69335;SHT31;56477;52.742;15.242;2023-01-28T13:49:25;1.16;81.72
69335;SHT31;56477;52.742;15.242;2023-01-28T13:55:13;1.09;81.64
69335;SHT31;56477;52.742;15.242;2023-01-28T14:19:40;1.12;81.14
69335;SHT31;56477;52.742;15.242;2023-01-28T14:22:07;1.10;81.28
69335;SHT31;56477;52.742;15.242;2023-01-28T14:24:36;1.17;81.58
69335;SHT31;56477;52.742;15.242;2023-01-28T14:27:17;1.19;80.94
69335;SHT31;56477;52.742;15.242;2023-01-28T14:30:07;1.20;79.67
69335;SHT31;56477;52.742;15.242;2023-01-28T14:32:47;1.22;80.37
69335;SHT31;56477;52.742;15.242;2023-01-28T14:35:32;1.17;80.08
69335;SHT31;56477;52.742;15.242;2023-01-28T14:37:59;1.07;79.81
69335;SHT31;56477;52.742;15.242;2023-01-28T14:40:32;1.06;80.25
69335;SHT31;56477;52.742;15.242;2023-01-28T14:43:02;1.12;80.53
69335;SHT31;56477;52.742;15.242;2023-01-28T14:56:03;1.17;79.46
69335;SHT31;56477;52.742;15.242;2023-01-28T15:01:31;1.12;78.79
69335;SHT31;56477;52.742;15.242;2023-01-28T15:03:57;1.10;77.53
69335;SHT31;56477;52.742;15.242;2023-01-28T15:06:34;1.07;76.49
69335;SHT31;56477;52.742;15.242;2023-01-28T15:09:08;1.05;77.47
69335;SHT31;56477;52.742;15.242;2023-01-28T15:11:37;1.03;78.39
69335;SHT31;56477;52.742;15.242;2023-01-28T15:14:27;1.00;77.65
69335;SHT31;56477;52.742;15.242;2023-01-28T15:16:54;0.96;77.24
69335;SHT31;56477;52.742;15.242;2023-01-28T15:19:32;0.96;77.24
69335;SHT31;56477;52.742;15.242;2023-01-28T15:22:06;0.92;77.34
69335;SHT31;56477;52.742;15.242;2023-01-28T15:24:33;0.91;78.05
69335;SHT31;56477;52.742;15.242;2023-01-28T15:27:00;0.86;78.91
69335;SHT31;56477;52.742;15.242;2023-01-28T15:31:58;0.82;79.55
69335;SHT31;56477;52.742;15.242;2023-01-28T15:34:24;0.84;79.65
69335;SHT31;56477;52.742;15.242;2023-01-28T15:36:58;0.84;79.67
69335;SHT31;56477;52.742;15.242;2023-01-28T15:39:26;0.84;79.94
69335;SHT31;56477;52.742;15.242;2023-01-28T15:41:58;0.79;80.83
69335;SHT31;56477;52.742;15.242;2023-01-28T15:44:31;0.78;81.44
69335;SHT31;56477;52.742;15.242;2023-01-28T15:46:59;0.75;81.64
69335;SHT31;56477;52.742;15.242;2023-01-28T15:49:36;0.74;82.31
69335;SHT31;56477;52.742;15.242;2023-01-28T15:52:03;0.71;82.32
69335;SHT31;56477;52.742;15.242;2023-01-28T15:54:29;0.69;82.69
69335;SHT31;56477;52.742;15.242;2023-01-28T15:56:56;0.65;82.80
69335;SHT31;56477;52.742;15.242;2023-01-28T15:59:32;0.62;83.26
69335;SHT31;56477;52.742;15.242;2023-01-28T16:02:22;0.64;83.39
69335;SHT31;56477;52.742;15.242;2023-01-28T16:04:57;0.61;83.78
69335;SHT31;56477;52.742;15.242;2023-01-28T16:07:28;0.60;84.04
69335;SHT31;56477;52.742;15.242;2023-01-28T16:09:57;0.58;84.34
69335;SHT31;56477;52.742;15.242;2023-01-28T16:12:24;0.58;84.02
69335;SHT31;56477;52.742;15.242;2023-01-28T16:14:54;0.57;84.35
69335;SHT31;56477;52.742;15.242;2023-01-28T16:17:24;0.55;84.38
69335;SHT31;56477;52.742;15.242;2023-01-28T16:19:57;0.58;84.50
69335;SHT31;56477;52.742;15.242;2023-01-28T16:22:37;0.54;84.44
69335;SHT31;56477;52.742;15.242;2023-01-28T16:25:24;0.51;84.85
69335;SHT31;56477;52.742;15.242;2023-01-28T16:27:51;0.50;84.75
69335;SHT31;56477;52.742;15.242;2023-01-28T16:30:17;0.48;84.97
69335;SHT31;56477;52.742;15.242;2023-01-28T16:32:44;0.47;84.99
69335;SHT31;56477;52.742;15.242;2023-01-28T16:35:19;0.50;84.48
69335;SHT31;56477;52.742;15.242;2023-01-28T16:37:50;0.50;84.79
69335;SHT31;56477;52.742;15.242;2023-01-28T16:40:19;0.46;85.05
69335;SHT31;56477;52.742;15.242;2023-01-28T16:42:46;0.46;85.22
69335;SHT31;56477;52.742;15.242;2023-01-28T16:45:21;0.43;85.17
69335;SHT31;56477;52.742;15.242;2023-01-28T16:47:48;0.44;85.21
69335;SHT31;56477;52.742;15.242;2023-01-28T16:50:15;0.43;85.36
69335;SHT31;56477;52.742;15.242;2023-01-28T16:52:43;0.46;85.43
69335;SHT31;56477;52.742;15.242;2023-01-28T16:55:14;0.46;85.48
69335;SHT31;56477;52.742;15.242;2023-01-28T16:57:43;0.43;85.59
69335;SHT31;56477;52.742;15.242;2023-01-28T17:00:16;0.41;84.88
69335;SHT31;56477;52.742;15.242;2023-01-28T17:02:44;0.41;84.85
69335;SHT31;56477;52.742;15.242;2023-01-28T17:05:10;0.41;84.51
69335;SHT31;56477;52.742;15.242;2023-01-28T17:07:36;0.43;84.42
69335;SHT31;56477;52.742;15.242;2023-01-28T17:10:04;0.40;84.71
69335;SHT31;56477;52.742;15.242;2023-01-28T17:12:30;0.41;84.42
69335;SHT31;56477;52.742;15.242;2023-01-28T17:14:56;0.41;83.25
69335;SHT31;56477;52.742;15.242;2023-01-28T17:17:23;0.44;81.82
69335;SHT31;56477;52.742;15.242;2023-01-28T17:19:48;0.43;83.17
69335;SHT31;56477;52.742;15.242;2023-01-28T17:22:15;0.43;82.63
69335;SHT31;56477;52.742;15.242;2023-01-28T17:24:41;0.40;83.13
69335;SHT31;56477;52.742;15.242;2023-01-28T17:27:10;0.36;83.65
69335;SHT31;56477;52.742;15.242;2023-01-28T17:29:38;0.41;83.42
69335;SHT31;56477;52.742;15.242;2023-01-28T17:32:05;0.36;83.81
69335;SHT31;56477;52.742;15.242;2023-01-28T17:34:31;0.36;83.35
69335;SHT31;56477;52.742;15.242;2023-01-28T17:36:57;0.36;83.76
69335;SHT31;56477;52.742;15.242;2023-01-28T17:39:23;0.38;83.70
69335;SHT31;56477;52.742;15.242;2023-01-28T17:41:49;0.38;83.56
69335;SHT31;56477;52.742;15.242;2023-01-28T17:44:17;0.36;83.62
69335;SHT31;56477;52.742;15.242;2023-01-28T17:46:44;0.36;83.44
69335;SHT31;56477;52.742;15.242;2023-01-28T17:49:16;0.31;83.67
69335;SHT31;56477;52.742;15.242;2023-01-28T17:51:43;0.34;83.36
69335;SHT31;56477;52.742;15.242;2023-01-28T17:54:11;0.33;83.44
69335;SHT31;56477;52.742;15.242;2023-01-28T17:56:38;0.33;83.84
69335;SHT31;56477;52.742;15.242;2023-01-28T17:59:04;0.31;83.93
69335;SHT31;56477;52.742;15.242;2023-01-28T18:01:32;0.31;83.67